.
Local / CommonContents

Fort Wayne - NE Ind.
U N D E R   C O N S T R U C T I O N

Northern Indiana (IWX) Radar

Latest IWX NEXRAD
Base Reflectivity



Latest IWX NEXRAD
Base Velocity

Indiana-Ohio Visible Satellite

For infrared and water vapor imagery, see Great Lakes - Midwest.

Current Conditions

Recent report from the Fort Wayne International Airport

Apr 21, 2019 - 05:54 PM EDT / 2019.04.21 2154 UTC


The skies are partly cloudy. The temperature is 64.9 F (18.3 C) and the dew point is 43.0 F (6.1 C), giving a relative humidity of 44%. The barometric pressure is 30.09 in. Hg (1018 hPa). The wind is from the SE (140 degrees) at 5 MPH (4 KT), and the visibility is 10 mile(s).

KFWA 212154Z 14004KT 10SM FEW100 SCT250 18/06 A3009 RMK AO2 SLP191 T01830061
CoCoRaHS
IN-AL-39
A2 Web Hosting
Creative Commons License
GoDaddy
search engine by freefind advanced

loaded 2019-04-21 18:04:11 • last modified 2015-05-28 14:58:18
Privacy PolicyDisclaimer
• wx.awcolley.com is powered by PmWiki v.2002016 •
• all content (unless otherwise noted) © 2019 A W Colley